This is the latest recevied weather packets stored in our database for station/object PY2VE-13. If no packets are shown the sender has not sent any weather packets the latest 10 day(s).
| Time | Temp. | Humidity | Pressure | Rain* | Wind** | Luminosity | Snow |
|---|---|---|---|---|---|---|---|
| 1788438405 | 23.33° C | 48% | 1023.5 hPa | - | - | - | - |
| 1788433905 | 19.44° C | 59% | 1024.8 hPa | - | - | - | - |
| 1788433005 | 20.56° C | 54% | 1024.5 hPa | - | - | - | - |
| 1788432105 | 20° C | 53% | 1024.5 hPa | - | - | - | - |
| 1788431205 | 19.44° C | 54% | 1024.7 hPa | - | - | - | - |
| 1788430305 | 20° C | 53% | 1024.6 hPa | - | - | - | - |
| 1788429405 | 19.44° C | 54% | 1024.7 hPa | - | - | - | - |
| 1788428505 | 18.33° C | 57% | 1024.8 hPa | - | - | - | - |
| 1788427605 | 18.33° C | 57% | 1024.5 hPa | - | - | - | - |
| 1788426705 | 18.89° C | 55% | 1024.2 hPa | - | - | - | - |
| 1788424005 | 17.78° C | 59% | 1024.3 hPa | - | - | - | - |
| 1788423104 | 16.11° C | 65% | 1024.7 hPa | - | - | - | - |
| 1788422204 | 17.78° C | 58% | 1024.2 hPa | - | - | - | - |
| 1788421305 | 20.56° C | 52% | 1023.4 hPa | - | - | - | - |
| 1788420404 | 20.56° C | 51% | 1023.4 hPa | - | - | - | - |
| 1788419504 | 20.56° C | 52% | 1023.5 hPa | - | - | - | - |
| 1788418604 | 20° C | 53% | 1023.6 hPa | - | - | - | - |
| 1788417704 | 17.22° C | 60% | 1024.4 hPa | - | - | - | - |
| 1788416804 | 18.89° C | 55% | 1023.9 hPa | - | - | - | - |
| 1788415904 | 20° C | 52% | 1023.4 hPa | - | - | - | - |
| 1788415004 | 19.44° C | 53% | 1023.7 hPa | - | - | - | - |
| 1788414104 | 19.44° C | 55% | 1024 hPa | - | - | - | - |
| 1788413204 | 21.11° C | 50% | 1023.5 hPa | - | - | - | - |
| 1788412304 | 20.56° C | 51% | 1023.5 hPa | - | - | - | - |
| 1788411404 | 21.11° C | 50% | 1023.3 hPa | - | - | - | - |
* Rain since midnight (hover to see other rain measurements)
** Current wind speed in m/s (hover to see current wind gust speed)